Time;durP1;ratioP1;P1;durP2;ratioP2;P2;SDS_P1;SDS_P2;PMS_P1;PMS_P2;Temp;Humidity;BMP_temperature;BMP_pressure;BME280_temperature;BME280_humidity;BME280_pressure;Samples;Min_cycle;Max_cycle;Signal;HPM_P1;HPM_P2
2022/10/19 00:01:18;;;;;;;24.88;13.35;;;;;;;;;;4982081;28;20038;-72
2022/10/19 00:03:47;;;;;;;28.30;13.52;;;;;;;;;;4986945;28;20041;-71
2022/10/19 00:06:24;;;;;;;24.70;13.65;;;;;;;;;;5000836;28;20436;-71
2022/10/19 00:08:57;;;;;;;32.72;14.40;;;;;;;;;;4990665;28;20038;-72
2022/10/19 00:11:22;;;;;;;;;;;;;;;;;;4991153;28;20049;-71
2022/10/19 00:13:48;;;;;;;27.30;13.07;;;;;;;;;;4986751;28;19925;-72
2022/10/19 00:16:16;;;;;;;30.25;14.43;;;;;;;;;;4986248;28;20121;-72
2022/10/19 00:18:42;;;;;;;22.50;12.95;;;;;;;;;;4982034;28;20030;-72
2022/10/19 00:21:09;;;;;;;25.42;13.40;;;;;;;;;;4991687;28;20068;-72
2022/10/19 00:23:35;;;;;;;27.73;12.93;;;;;;;;;;4979271;28;20497;-72
2022/10/19 00:26:01;;;;;;;25.25;13.02;;;;;;;;;;4980100;28;20089;-72
2022/10/19 00:28:26;;;;;;;27.25;12.98;;;;;;;;;;4976352;28;20517;-72
2022/10/19 00:30:52;;;;;;;26.88;13.55;;;;;;;;;;4978956;28;20038;-72
2022/10/19 00:33:20;;;;;;;23.50;12.75;;;;;;;;;;4982936;28;20046;-74
2022/10/19 00:35:48;;;;;;;29.30;12.90;;;;;;;;;;4976949;28;20026;-72
2022/10/19 00:38:14;;;;;;;26.98;12.68;;;;;;;;;;4981465;28;20054;-72
2022/10/19 00:40:39;;;;;;;23.05;12.07;;;;;;;;;;4975605;28;20161;-73
2022/10/19 00:43:20;;;;;;;23.75;11.90;;;;;;;;;;4977365;28;20039;-73
2022/10/19 00:45:46;;;;;;;26.75;11.32;;;;;;;;;;4976263;28;20532;-71
2022/10/19 00:48:20;;;;;;;21.02;11.95;;;;;;;;;;4979039;28;20038;-71
2022/10/19 00:50:48;;;;;;;24.55;11.98;;;;;;;;;;4979639;28;20045;-71
2022/10/19 00:53:15;;;;;;;25.55;12.55;;;;;;;;;;4977802;28;20046;-71
2022/10/19 00:55:40;;;;;;;24.25;12.60;;;;;;;;;;4976164;28;20502;-71
2022/10/19 00:58:06;;;;;;;26.17;12.60;;;;;;;;;;4979902;28;20034;-71
2022/10/19 01:00:33;;;;;;;25.52;11.95;;;;;;;;;;4972825;28;20295;-72
2022/10/19 01:02:59;;;;;;;24.65;11.60;;;;;;;;;;4975094;28;20553;-72
2022/10/19 01:05:25;;;;;;;25.95;12.15;;;;;;;;;;4977257;28;20065;-71
2022/10/19 01:07:51;;;;;;;23.08;12.70;;;;;;;;;;4971796;28;20533;-73
2022/10/19 01:10:21;;;;;;;22.27;11.63;;;;;;;;;;4976744;28;20461;-71
2022/10/19 01:13:10;;;;;;;21.27;11.77;;;;;;;;;;4976486;28;20042;-70
2022/10/19 01:15:35;;;;;;;23.00;11.50;;;;;;;;;;4980566;28;20042;-70
2022/10/19 01:18:19;;;;;;;26.65;11.63;;;;;;;;;;4976444;28;20041;-72
2022/10/19 01:21:19;;;;;;;22.95;11.32;;;;;;;;;;4977765;28;20743;-71
2022/10/19 01:23:47;;;;;;;23.02;11.00;;;;;;;;;;4983964;28;20157;-71
2022/10/19 01:26:49;;;;;;;21.25;11.65;;;;;;;;;;4978643;28;20129;-72
2022/10/19 01:29:36;;;;;;;20.00;11.77;;;;;;;;;;4979928;28;20034;-71
2022/10/19 01:32:10;;;;;;;25.05;12.23;;;;;;;;;;4976265;28;20038;-72
2022/10/19 01:35:09;;;;;;;23.52;11.75;;;;;;;;;;4979399;28;20047;-71
2022/10/19 01:37:49;;;;;;;22.85;12.27;;;;;;;;;;4975326;28;20113;-71
2022/10/19 01:40:26;;;;;;;25.20;11.98;;;;;;;;;;4976250;28;20440;-69
2022/10/19 01:43:04;;;;;;;24.00;11.80;;;;;;;;;;4976646;28;20042;-71
2022/10/19 01:45:47;;;;;;;25.42;12.20;;;;;;;;;;4980007;28;20038;-71
2022/10/19 01:48:34;;;;;;;21.63;11.32;;;;;;;;;;4980904;28;20042;-70
2022/10/19 01:51:18;;;;;;;22.33;10.57;;;;;;;;;;4978734;28;20031;-72
2022/10/19 01:53:48;;;;;;;21.02;11.38;;;;;;;;;;4981766;28;20057;-71
2022/10/19 01:56:17;;;;;;;25.52;11.75;;;;;;;;;;4981062;28;20046;-72
2022/10/19 01:58:44;;;;;;;22.58;11.35;;;;;;;;;;4984095;28;20057;-72
2022/10/19 02:01:13;;;;;;;24.60;10.75;;;;;;;;;;4982343;28;20031;-71
2022/10/19 02:03:39;;;;;;;22.30;10.52;;;;;;;;;;4981500;28;20060;-71
2022/10/19 02:06:07;;;;;;;19.75;10.85;;;;;;;;;;4982432;28;20034;-71
2022/10/19 02:08:50;;;;;;;21.73;10.57;;;;;;;;;;4982458;28;20022;-71
2022/10/19 02:11:17;;;;;;;21.55;10.63;;;;;;;;;;4981589;28;20074;-70
2022/10/19 02:13:45;;;;;;;18.38;10.88;;;;;;;;;;4980203;28;20046;-70
2022/10/19 02:16:43;;;;;;;21.98;11.10;;;;;;;;;;4980986;28;21289;-70
2022/10/19 02:19:12;;;;;;;19.60;10.68;;;;;;;;;;4984138;28;20497;-72
2022/10/19 02:21:37;;;;;;;23.13;11.02;;;;;;;;;;4985155;28;20038;-72
2022/10/19 02:24:03;;;;;;;18.75;11.05;;;;;;;;;;4980694;28;20036;-72
2022/10/19 02:26:29;;;;;;;26.13;10.10;;;;;;;;;;4978815;28;20026;-72
2022/10/19 02:28:55;;;;;;;18.40;10.98;;;;;;;;;;4972046;28;20030;-71
2022/10/19 02:31:21;;;;;;;21.23;11.00;;;;;;;;;;4987631;28;20113;-72
2022/10/19 02:33:47;;;;;;;29.08;11.48;;;;;;;;;;4985476;28;20049;-71
2022/10/19 02:36:12;;;;;;;24.55;10.82;;;;;;;;;;4980538;28;20494;-71
2022/10/19 02:38:39;;;;;;;23.08;11.13;;;;;;;;;;4982884;28;20030;-72
2022/10/19 02:41:20;;;;;;;24.27;12.20;;;;;;;;;;4981781;28;20031;-72
2022/10/19 02:43:49;;;;;;;20.05;10.52;;;;;;;;;;4984203;28;20423;-72
2022/10/19 02:46:26;;;;;;;21.98;11.50;;;;;;;;;;4984229;28;20596;-71
2022/10/19 02:48:54;;;;;;;22.90;10.85;;;;;;;;;;4981615;28;20049;-72
2022/10/19 02:51:33;;;;;;;21.13;10.23;;;;;;;;;;4983396;28;20867;-71
2022/10/19 02:53:58;;;;;;;19.42;10.27;;;;;;;;;;4988430;28;20426;-71
2022/10/19 02:56:24;;;;;;;21.83;11.10;;;;;;;;;;4979671;28;20031;-72
2022/10/19 02:58:49;;;;;;;24.83;10.05;;;;;;;;;;4980988;28;20042;-72
2022/10/19 03:01:15;;;;;;;20.85;10.20;;;;;;;;;;4982880;28;22012;-71
2022/10/19 03:03:40;;;;;;;21.77;10.95;;;;;;;;;;4980626;28;20066;-71
2022/10/19 03:06:05;;;;;;;21.15;10.52;;;;;;;;;;4976797;28;20027;-72
2022/10/19 03:08:31;;;;;;;25.38;11.00;;;;;;;;;;4979386;28;20029;-72
2022/10/19 03:10:59;;;;;;;18.77;9.93;;;;;;;;;;4977154;28;20046;-71
2022/10/19 03:13:24;;;;;;;19.92;10.48;;;;;;;;;;4981833;28;20038;-71
2022/10/19 03:15:51;;;;;;;17.92;9.60;;;;;;;;;;4981760;28;20054;-71
2022/10/19 03:18:16;;;;;;;17.63;10.30;;;;;;;;;;4981453;28;20035;-70
2022/10/19 03:20:41;;;;;;;17.20;9.60;;;;;;;;;;4983936;28;20052;-71
2022/10/19 03:23:07;;;;;;;23.20;10.40;;;;;;;;;;4984053;28;20090;-71
2022/10/19 03:25:32;;;;;;;17.55;10.50;;;;;;;;;;4978189;28;20026;-71
2022/10/19 03:27:58;;;;;;;17.17;9.82;;;;;;;;;;4978391;28;21273;-71
2022/10/19 03:30:23;;;;;;;19.65;9.98;;;;;;;;;;4982694;28;20049;-72
2022/10/19 03:32:48;;;;;;;18.63;10.40;;;;;;;;;;4983944;28;20049;-71
2022/10/19 03:35:14;;;;;;;18.20;9.55;;;;;;;;;;4981005;28;20057;-70
2022/10/19 03:37:39;;;;;;;19.48;10.00;;;;;;;;;;4978830;28;21234;-70
2022/10/19 03:40:05;;;;;;;17.17;9.85;;;;;;;;;;4978674;28;20065;-70
2022/10/19 03:42:30;;;;;;;16.60;9.18;;;;;;;;;;4987450;28;20125;-71
2022/10/19 03:44:56;;;;;;;16.13;9.13;;;;;;;;;;4980613;28;20045;-71
2022/10/19 03:47:22;;;;;;;19.48;8.77;;;;;;;;;;4982273;28;20026;-71
2022/10/19 03:49:49;;;;;;;16.35;8.80;;;;;;;;;;4979385;28;20578;-71
2022/10/19 03:52:14;;;;;;;20.73;9.15;;;;;;;;;;4984259;28;20048;-71
2022/10/19 03:54:40;;;;;;;14.82;8.30;;;;;;;;;;4980608;28;20038;-71
2022/10/19 03:57:05;;;;;;;16.35;8.57;;;;;;;;;;4976405;28;20531;-72
2022/10/19 03:59:31;;;;;;;16.08;8.65;;;;;;;;;;4980809;28;20030;-71
2022/10/19 04:01:56;;;;;;;14.23;8.50;;;;;;;;;;4975663;28;20442;-71
2022/10/19 04:04:21;;;;;;;15.23;8.88;;;;;;;;;;4979925;28;20042;-72
2022/10/19 04:06:48;;;;;;;15.40;8.10;;;;;;;;;;4981902;28;20034;-72
2022/10/19 04:09:17;;;;;;;14.77;7.47;;;;;;;;;;4978212;28;20092;-71
2022/10/19 04:11:43;;;;;;;16.50;7.78;;;;;;;;;;4982774;28;20390;-71
2022/10/19 04:14:11;;;;;;;11.57;8.20;;;;;;;;;;4975249;28;20038;-71
2022/10/19 04:16:36;;;;;;;14.13;7.88;;;;;;;;;;4977936;28;20038;-71
2022/10/19 04:19:02;;;;;;;19.52;8.63;;;;;;;;;;4980673;28;20042;-71
2022/10/19 04:21:30;;;;;;;11.80;8.20;;;;;;;;;;4980954;28;20038;-71
2022/10/19 04:24:07;;;;;;;14.63;7.82;;;;;;;;;;4978825;28;20382;-72
2022/10/19 04:26:37;;;;;;;13.40;7.97;;;;;;;;;;4978325;28;20042;-72
2022/10/19 04:29:02;;;;;;;15.63;7.78;;;;;;;;;;4978198;28;20506;-72
2022/10/19 04:31:28;;;;;;;15.20;8.73;;;;;;;;;;4979513;28;20046;-71
2022/10/19 04:33:54;;;;;;;13.35;7.47;;;;;;;;;;4977384;28;20049;-72
2022/10/19 04:36:20;;;;;;;17.17;8.20;;;;;;;;;;4975528;28;20570;-72
2022/10/19 04:38:46;;;;;;;10.68;7.47;;;;;;;;;;4971897;28;20034;-71
2022/10/19 04:41:14;;;;;;;12.55;7.32;;;;;;;;;;4979012;28;20042;-71
2022/10/19 04:43:40;;;;;;;12.57;7.32;;;;;;;;;;4970389;28;20781;-70
2022/10/19 04:46:08;;;;;;;13.93;7.93;;;;;;;;;;4970090;28;20046;-71
2022/10/19 04:48:34;;;;;;;14.05;7.60;;;;;;;;;;4979277;28;20041;-70
2022/10/19 04:51:00;;;;;;;17.77;9.15;;;;;;;;;;4980550;28;20038;-72
2022/10/19 04:53:25;;;;;;;16.42;8.38;;;;;;;;;;4977182;28;20046;-73
2022/10/19 04:55:51;;;;;;;14.20;7.35;;;;;;;;;;4970502;28;20035;-72
2022/10/19 04:58:16;;;;;;;14.45;7.82;;;;;;;;;;4978130;28;20035;-70
2022/10/19 05:00:42;;;;;;;16.13;7.95;;;;;;;;;;4979388;28;20045;-71
2022/10/19 05:03:07;;;;;;;18.63;8.15;;;;;;;;;;4978843;28;20032;-72
2022/10/19 05:05:33;;;;;;;13.13;7.60;;;;;;;;;;4980730;28;20042;-72
2022/10/19 05:07:59;;;;;;;18.90;7.82;;;;;;;;;;4975786;28;20465;-71
2022/10/19 05:10:25;;;;;;;12.40;8.10;;;;;;;;;;4978050;28;20181;-71
2022/10/19 05:12:50;;;;;;;14.63;8.18;;;;;;;;;;4973333;28;20821;-71
2022/10/19 05:15:16;;;;;;;14.05;7.78;;;;;;;;;;4976581;28;20393;-72
2022/10/19 05:17:41;;;;;;;14.52;7.57;;;;;;;;;;4978523;28;20478;-71
2022/10/19 05:20:07;;;;;;;15.70;7.18;;;;;;;;;;4974726;28;20044;-71
2022/10/19 05:22:33;;;;;;;20.75;8.30;;;;;;;;;;4978455;28;20487;-70
2022/10/19 05:24:58;;;;;;;11.68;7.43;;;;;;;;;;4981923;28;20041;-72
2022/10/19 05:27:23;;;;;;;12.85;7.72;;;;;;;;;;4979847;28;20089;-72
2022/10/19 05:29:49;;;;;;;12.60;6.95;;;;;;;;;;4984041;28;20113;-71
2022/10/19 05:32:14;;;;;;;14.18;7.53;;;;;;;;;;4985506;28;20034;-71
2022/10/19 05:34:40;;;;;;;13.20;8.52;;;;;;;;;;4980757;28;20526;-70
2022/10/19 05:37:06;;;;;;;17.52;7.75;;;;;;;;;;4982741;28;20042;-71
2022/10/19 05:39:31;;;;;;;11.75;7.40;;;;;;;;;;4984000;28;20043;-71
2022/10/19 05:41:57;;;;;;;11.75;7.55;;;;;;;;;;4985328;28;20030;-72
2022/10/19 05:44:23;;;;;;;13.70;7.00;;;;;;;;;;4986733;28;20037;-71
2022/10/19 05:46:49;;;;;;;14.38;7.40;;;;;;;;;;4985161;28;20096;-71
2022/10/19 05:49:18;;;;;;;16.80;7.38;;;;;;;;;;4983509;28;20436;-71
2022/10/19 05:51:44;;;;;;;11.18;6.82;;;;;;;;;;4982960;28;20045;-71
2022/10/19 05:54:10;;;;;;;16.08;7.60;;;;;;;;;;4983566;28;20034;-71
2022/10/19 05:56:36;;;;;;;12.43;7.10;;;;;;;;;;4981379;28;20053;-71
2022/10/19 05:59:04;;;;;;;12.30;7.15;;;;;;;;;;4978966;28;20080;-71
2022/10/19 06:01:30;;;;;;;15.48;7.75;;;;;;;;;;4982540;28;20029;-71
2022/10/19 06:03:57;;;;;;;13.07;7.57;;;;;;;;;;4980377;28;20043;-70
2022/10/19 06:06:25;;;;;;;13.98;7.50;;;;;;;;;;4985651;28;20072;-71
2022/10/19 06:08:51;;;;;;;17.30;6.28;;;;;;;;;;4984132;28;20049;-70
2022/10/19 06:11:20;;;;;;;10.48;5.88;;;;;;;;;;4983101;28;20088;-70
2022/10/19 06:13:48;;;;;;;14.02;6.70;;;;;;;;;;4980726;28;20128;-72
2022/10/19 06:16:18;;;;;;;13.60;6.15;;;;;;;;;;4984510;28;20070;-70
2022/10/19 06:18:44;;;;;;;11.98;6.95;;;;;;;;;;4996586;28;20125;-72
2022/10/19 06:21:15;;;;;;;14.85;5.80;;;;;;;;;;4982910;28;20190;-71
2022/10/19 06:23:41;;;;;;;8.73;5.32;;;;;;;;;;4985283;28;20389;-72
2022/10/19 06:26:09;;;;;;;8.13;5.30;;;;;;;;;;4983839;28;20065;-72
2022/10/19 06:28:36;;;;;;;9.35;5.65;;;;;;;;;;4982426;28;20087;-72
2022/10/19 06:31:02;;;;;;;8.85;5.50;;;;;;;;;;4981856;28;20049;-70
2022/10/19 06:33:28;;;;;;;11.27;4.75;;;;;;;;;;4986240;28;20039;-71
2022/10/19 06:35:54;;;;;;;10.80;5.05;;;;;;;;;;4982727;28;20461;-71
2022/10/19 06:38:20;;;;;;;8.63;5.13;;;;;;;;;;4987104;28;20058;-70
2022/10/19 06:40:47;;;;;;;15.80;5.72;;;;;;;;;;4978939;28;20039;-70
2022/10/19 06:43:13;;;;;;;14.77;5.72;;;;;;;;;;4979952;28;20027;-71
2022/10/19 06:45:39;;;;;;;10.57;5.32;;;;;;;;;;4981304;28;20049;-71
2022/10/19 06:48:05;;;;;;;19.35;6.55;;;;;;;;;;4981398;28;20037;-71
2022/10/19 06:50:31;;;;;;;12.48;5.68;;;;;;;;;;4984633;28;20029;-71
2022/10/19 06:52:57;;;;;;;14.70;5.60;;;;;;;;;;4983798;28;20383;-70
2022/10/19 06:55:23;;;;;;;14.63;5.28;;;;;;;;;;4985024;28;20556;-70
2022/10/19 06:57:49;;;;;;;12.38;5.22;;;;;;;;;;4982088;28;20043;-72
2022/10/19 07:00:14;;;;;;;11.77;4.82;;;;;;;;;;4983652;28;20051;-71
2022/10/19 07:02:39;;;;;;;7.47;4.43;;;;;;;;;;4981587;28;20033;-71
2022/10/19 07:05:06;;;;;;;7.75;4.28;;;;;;;;;;4983595;28;20038;-71
2022/10/19 07:07:31;;;;;;;8.88;4.03;;;;;;;;;;4981620;28;20027;-72
2022/10/19 07:09:57;;;;;;;6.97;4.53;;;;;;;;;;4980799;28;20069;-72
2022/10/19 07:12:22;;;;;;;7.45;4.13;;;;;;;;;;4982555;28;20433;-71
2022/10/19 07:14:47;;;;;;;7.60;3.97;;;;;;;;;;4981496;28;20458;-71
2022/10/19 07:17:13;;;;;;;7.70;4.15;;;;;;;;;;4979400;28;20042;-71
2022/10/19 07:19:38;;;;;;;8.52;4.63;;;;;;;;;;4979991;28;20062;-71
2022/10/19 07:22:04;;;;;;;8.75;4.05;;;;;;;;;;4985388;28;20824;-70
2022/10/19 07:24:29;;;;;;;6.30;4.25;;;;;;;;;;4979275;28;20077;-69
2022/10/19 07:26:55;;;;;;;15.07;4.93;;;;;;;;;;4970278;28;20037;-70
2022/10/19 07:29:20;;;;;;;11.93;4.45;;;;;;;;;;4981284;28;20039;-69
2022/10/19 07:31:46;;;;;;;6.90;4.22;;;;;;;;;;4978435;28;20042;-70
2022/10/19 07:34:13;;;;;;;11.05;4.60;;;;;;;;;;4985623;28;20078;-70
2022/10/19 07:36:39;;;;;;;8.18;4.65;;;;;;;;;;4975539;28;20479;-70
2022/10/19 07:39:06;;;;;;;7.78;4.05;;;;;;;;;;4984272;28;20049;-71
2022/10/19 07:41:33;;;;;;;7.13;4.53;;;;;;;;;;4976895;28;20031;-71
2022/10/19 07:44:00;;;;;;;9.27;5.05;;;;;;;;;;4978466;28;20035;-71
2022/10/19 07:46:35;;;;;;;8.73;4.68;;;;;;;;;;4980143;28;20043;-72
2022/10/19 07:49:03;;;;;;;17.98;4.90;;;;;;;;;;4982111;28;20043;-71
2022/10/19 07:51:29;;;;;;;12.98;5.13;;;;;;;;;;4975902;28;20046;-71
2022/10/19 07:53:54;;;;;;;8.07;4.93;;;;;;;;;;4979489;28;20441;-71
2022/10/19 07:56:22;;;;;;;16.48;5.47;;;;;;;;;;4985751;28;20046;-71
2022/10/19 07:58:49;;;;;;;15.02;5.28;;;;;;;;;;4980055;28;20560;-71
2022/10/19 08:01:18;;;;;;;13.85;5.00;;;;;;;;;;4978287;28;20038;-72
2022/10/19 08:03:45;;;;;;;10.80;5.32;;;;;;;;;;4977448;28;20394;-73
2022/10/19 08:06:12;;;;;;;12.35;4.95;;;;;;;;;;4975494;28;20454;-71
2022/10/19 08:08:38;;;;;;;11.80;4.90;;;;;;;;;;4978275;28;20502;-70
2022/10/19 08:11:17;;;;;;;13.15;4.78;;;;;;;;;;4980451;28;20042;-71
2022/10/19 08:13:43;;;;;;;20.13;5.93;;;;;;;;;;4977538;28;20464;-72
2022/10/19 08:16:26;;;;;;;14.50;5.00;;;;;;;;;;4977123;28;20096;-71
2022/10/19 08:18:54;;;;;;;19.00;4.63;;;;;;;;;;4974032;28;20039;-71
2022/10/19 08:21:20;;;;;;;15.68;4.85;;;;;;;;;;4973919;28;20069;-71
2022/10/19 08:23:45;;;;;;;17.30;4.72;;;;;;;;;;4974609;28;20030;-71
2022/10/19 08:26:11;;;;;;;14.48;5.40;;;;;;;;;;4977154;28;20038;-71
2022/10/19 08:28:36;;;;;;;14.13;4.72;;;;;;;;;;4979557;28;20042;-71
2022/10/19 08:31:14;;;;;;;11.75;5.45;;;;;;;;;;4975653;28;20053;-71
2022/10/19 08:33:40;;;;;;;13.15;5.22;;;;;;;;;;4978631;28;20053;-70
2022/10/19 08:36:07;;;;;;;10.77;4.60;;;;;;;;;;4978436;28;20042;-70
2022/10/19 08:38:37;;;;;;;15.00;4.82;;;;;;;;;;4977871;28;20039;-72
2022/10/19 08:41:43;;;;;;;13.52;4.85;;;;;;;;;;4972296;28;20528;-70
2022/10/19 08:44:11;;;;;;;13.10;4.35;;;;;;;;;;4976199;28;20502;-70
2022/10/19 08:47:02;;;;;;;11.75;5.15;;;;;;;;;;4978823;28;20502;-72
2022/10/19 08:49:29;;;;;;;15.57;4.80;;;;;;;;;;4977285;28;20142;-71
2022/10/19 08:51:58;;;;;;;15.55;5.20;;;;;;;;;;4982588;28;20038;-72
2022/10/19 08:54:30;;;;;;;13.05;4.90;;;;;;;;;;4973345;28;20102;-72
2022/10/19 08:57:09;;;;;;;11.80;4.47;;;;;;;;;;4973678;28;20027;-72
2022/10/19 08:59:47;;;;;;;10.43;4.35;;;;;;;;;;4976645;28;20030;-72
2022/10/19 09:02:20;;;;;;;9.35;3.85;;;;;;;;;;4978136;28;20042;-71
2022/10/19 09:05:02;;;;;;;9.45;3.00;;;;;;;;;;4986254;28;20117;-72
2022/10/19 09:07:36;;;;;;;7.22;2.90;;;;;;;;;;4981288;28;20430;-71
2022/10/19 09:10:17;;;;;;;8.68;2.85;;;;;;;;;;4984153;28;20503;-71
2022/10/19 09:12:45;;;;;;;12.52;3.20;;;;;;;;;;4978557;28;20562;-71
2022/10/19 09:15:18;;;;;;;7.18;3.00;;;;;;;;;;4979719;28;20081;-70
2022/10/19 09:17:43;;;;;;;12.80;3.55;;;;;;;;;;4982244;28;20442;-71
2022/10/19 09:20:16;;;;;;;19.67;4.07;;;;;;;;;;4983717;28;20046;-71
2022/10/19 09:22:43;;;;;;;19.10;5.10;;;;;;;;;;4981541;28;20038;-71
2022/10/19 09:25:17;;;;;;;10.23;2.92;;;;;;;;;;4989148;28;20057;-72
2022/10/19 09:27:46;;;;;;;10.32;3.78;;;;;;;;;;4982876;28;20049;-73
2022/10/19 09:30:20;;;;;;;9.80;3.17;;;;;;;;;;4980742;28;20046;-71
2022/10/19 09:32:48;;;;;;;6.40;3.35;;;;;;;;;;4981602;28;20034;-71
2022/10/19 09:35:13;;;;;;;9.55;3.08;;;;;;;;;;4981345;28;20815;-71
2022/10/19 09:37:43;;;;;;;13.18;4.53;;;;;;;;;;4977162;28;20034;-71
2022/10/19 09:40:16;;;;;;;10.90;3.30;;;;;;;;;;4975221;28;20398;-71
2022/10/19 09:42:41;;;;;;;7.15;3.17;;;;;;;;;;4981756;28;20429;-72
2022/10/19 09:45:31;;;;;;;14.40;3.38;;;;;;;;;;4984427;28;20037;-71
2022/10/19 09:47:57;;;;;;;4.47;2.78;;;;;;;;;;4980577;28;20072;-70
2022/10/19 09:50:29;;;;;;;9.70;3.60;;;;;;;;;;4979603;28;20050;-71
2022/10/19 09:53:01;;;;;;;9.65;3.38;;;;;;;;;;4983340;28;20503;-71
2022/10/19 09:55:32;;;;;;;11.80;3.13;;;;;;;;;;4977683;28;20039;-73
2022/10/19 09:58:01;;;;;;;11.68;3.70;;;;;;;;;;4974981;28;20541;-72
2022/10/19 10:00:38;;;;;;;16.83;3.70;;;;;;;;;;4984002;28;20042;-71
2022/10/19 10:03:06;;;;;;;7.78;3.90;;;;;;;;;;4978944;28;20085;-71
2022/10/19 10:05:39;;;;;;;12.73;3.78;;;;;;;;;;4981293;28;20081;-71
2022/10/19 10:08:14;;;;;;;11.90;4.00;;;;;;;;;;4980112;28;20042;-72
2022/10/19 10:10:44;;;;;;;15.65;3.88;;;;;;;;;;4993908;28;20042;-71
2022/10/19 10:13:17;;;;;;;18.77;4.20;;;;;;;;;;4977902;28;20462;-70
2022/10/19 10:15:43;;;;;;;;;;;;;;;;;;4981187;28;20450;-70
2022/10/19 10:18:14;;;;;;;14.73;4.45;;;;;;;;;;4971353;28;19917;-71
2022/10/19 10:20:59;;;;;;;13.93;4.03;;;;;;;;;;4976320;28;20034;-72
2022/10/19 10:23:30;;;;;;;15.27;4.70;;;;;;;;;;4970910;28;20081;-71
2022/10/19 10:25:57;;;;;;;21.65;5.38;;;;;;;;;;4979818;28;20030;-71
2022/10/19 10:28:25;;;;;;;12.48;4.30;;;;;;;;;;4978391;28;20080;-71
2022/10/19 10:31:07;;;;;;;10.88;4.32;;;;;;;;;;4973780;28;20720;-70
2022/10/19 10:33:36;;;;;;;12.13;4.13;;;;;;;;;;4975728;28;20391;-71
2022/10/19 10:36:06;;;;;;;13.05;3.88;;;;;;;;;;4982578;28;20474;-71
2022/10/19 10:38:34;;;;;;;12.98;4.70;;;;;;;;;;4980733;28;20030;-71
2022/10/19 10:41:06;;;;;;;10.90;4.32;;;;;;;;;;4976985;28;20092;-72
2022/10/19 10:43:35;;;;;;;11.15;4.07;;;;;;;;;;4981911;28;20034;-70
2022/10/19 10:46:07;;;;;;;8.98;4.40;;;;;;;;;;4979048;28;20042;-70
2022/10/19 10:48:39;;;;;;;12.38;4.60;;;;;;;;;;4966792;28;20073;-71
2022/10/19 10:51:18;;;;;;;13.48;5.10;;;;;;;;;;4978314;28;20042;-72
2022/10/19 10:53:44;;;;;;;9.45;4.70;;;;;;;;;;4982459;28;20023;-71
2022/10/19 10:56:23;;;;;;;16.55;4.50;;;;;;;;;;4976442;28;22238;-72
2022/10/19 10:58:57;;;;;;;16.65;4.75;;;;;;;;;;4974021;28;20517;-72
2022/10/19 11:01:29;;;;;;;6.38;4.38;;;;;;;;;;4971983;28;20046;-72
2022/10/19 11:04:18;;;;;;;9.85;4.88;;;;;;;;;;4974742;28;20042;-71
2022/10/19 11:06:52;;;;;;;11.23;4.88;;;;;;;;;;4978962;28;20039;-70
2022/10/19 11:09:37;;;;;;;14.32;4.68;;;;;;;;;;4979603;28;20049;-73
2022/10/19 11:12:09;;;;;;;11.75;4.30;;;;;;;;;;4982890;28;20033;-73
2022/10/19 11:14:52;;;;;;;14.90;5.18;;;;;;;;;;4986027;28;20038;-72
2022/10/19 11:17:23;;;;;;;14.68;5.32;;;;;;;;;;4980606;28;20173;-70
2022/10/19 11:19:52;;;;;;;16.05;4.85;;;;;;;;;;4981614;28;20120;-73
2022/10/19 11:22:43;;;;;;;9.35;4.25;;;;;;;;;;4977498;28;21988;-71
2022/10/19 11:25:24;;;;;;;11.02;4.50;;;;;;;;;;4980186;28;20578;-72
2022/10/19 11:28:01;;;;;;;14.68;5.10;;;;;;;;;;4978038;28;20096;-71
2022/10/19 11:30:31;;;;;;;17.75;5.25;;;;;;;;;;4980766;28;20092;-73
2022/10/19 11:33:39;;;;;;;13.07;4.55;;;;;;;;;;4979825;28;20027;-73
2022/10/19 11:36:27;;;;;;;13.73;4.90;;;;;;;;;;4979261;28;20039;-71
2022/10/19 11:39:02;;;;;;;13.27;4.82;;;;;;;;;;4978200;28;20498;-72
2022/10/19 11:41:37;;;;;;;9.18;4.70;;;;;;;;;;4979005;28;20351;-71
2022/10/19 11:44:21;;;;;;;12.73;5.47;;;;;;;;;;4979170;28;20069;-72
2022/10/19 11:46:59;;;;;;;13.13;4.63;;;;;;;;;;4997056;28;20526;-72
2022/10/19 11:49:34;;;;;;;13.75;5.50;;;;;;;;;;4976071;28;20042;-72
2022/10/19 11:52:14;;;;;;;16.45;4.85;;;;;;;;;;4975061;28;20070;-72
2022/10/19 11:55:06;;;;;;;10.40;4.82;;;;;;;;;;4978352;28;20062;-73
2022/10/19 11:57:44;;;;;;;9.75;4.88;;;;;;;;;;4979891;28;20484;-72
2022/10/19 12:00:15;;;;;;;10.98;4.55;;;;;;;;;;4979222;28;20036;-72
2022/10/19 12:03:09;;;;;;;14.98;5.28;;;;;;;;;;4978217;28;20038;-72
2022/10/19 12:05:40;;;;;;;17.85;5.18;;;;;;;;;;4975535;28;20054;-70
2022/10/19 12:08:31;;;;;;;10.38;4.45;;;;;;;;;;4972987;28;20062;-71
2022/10/19 12:11:34;;;;;;;10.75;4.78;;;;;;;;;;4977259;28;20105;-71
2022/10/19 12:14:04;;;;;;;13.15;4.40;;;;;;;;;;4983038;28;20093;-70
2022/10/19 12:16:37;;;;;;;8.55;4.70;;;;;;;;;;4980097;28;20053;-70
2022/10/19 12:19:04;;;;;;;;;;;;;;;;;;4980241;28;20042;-70
2022/10/19 12:21:38;;;;;;;9.05;4.47;;;;;;;;;;4976157;28;20486;-70
2022/10/19 12:24:13;;;;;;;9.75;4.60;;;;;;;;;;4977478;28;20545;-70
2022/10/19 12:26:39;;;;;;;9.45;5.18;;;;;;;;;;4981960;28;20022;-72
2022/10/19 12:29:13;;;;;;;12.18;5.60;;;;;;;;;;4975723;28;20034;-71
2022/10/19 12:31:39;;;;;;;9.57;5.32;;;;;;;;;;4977896;28;20557;-71
2022/10/19 12:34:21;;;;;;;12.10;6.15;;;;;;;;;;4978517;28;20081;-72
2022/10/19 12:37:19;;;;;;;11.13;5.50;;;;;;;;;;4978449;28;20573;-71
2022/10/19 12:40:02;;;;;;;13.55;6.68;;;;;;;;;;4975567;28;20042;-72
2022/10/19 12:42:43;;;;;;;;;;;;;;;;;;4974616;28;20042;-70
2022/10/19 12:45:33;;;;;;;10.23;6.35;;;;;;;;;;4974573;28;19921;-71
2022/10/19 12:48:07;;;;;;;14.43;6.35;;;;;;;;;;4972254;28;20056;-72
2022/10/19 12:50:53;;;;;;;12.00;7.15;;;;;;;;;;4978797;28;20488;-71
2022/10/19 12:53:23;;;;;;;9.98;6.05;;;;;;;;;;4983308;28;20046;-72
2022/10/19 12:56:05;;;;;;;10.23;5.82;;;;;;;;;;4980664;28;20043;-71
2022/10/19 12:58:42;;;;;;;15.65;6.63;;;;;;;;;;4977826;28;20125;-72
2022/10/19 13:01:15;;;;;;;10.50;5.88;;;;;;;;;;4973407;28;20530;-72
2022/10/19 13:03:42;;;;;;;;;;;;;;;;;;4981227;28;20110;-68
2022/10/19 13:06:11;;;;;;;15.18;5.90;;;;;;;;;;4975324;28;19920;-71
2022/10/19 13:08:44;;;;;;;8.73;5.90;;;;;;;;;;4977955;28;20876;-72
2022/10/19 13:11:15;;;;;;;7.32;5.32;;;;;;;;;;4975568;28;20453;-71
2022/10/19 13:14:00;;;;;;;11.35;6.10;;;;;;;;;;4975790;28;20591;-71
2022/10/19 13:16:28;;;;;;;8.57;5.80;;;;;;;;;;4979428;28;20556;-71
2022/10/19 13:19:12;;;;;;;11.23;6.10;;;;;;;;;;4981464;28;20597;-71
2022/10/19 13:21:59;;;;;;;8.85;5.20;;;;;;;;;;4971191;28;20507;-71
2022/10/19 13:24:25;;;;;;;9.10;5.65;;;;;;;;;;4977158;28;20112;-70
2022/10/19 13:27:02;;;;;;;11.35;5.90;;;;;;;;;;4976426;28;20106;-72
2022/10/19 13:29:40;;;;;;;12.90;5.32;;;;;;;;;;4976455;28;20449;-71
2022/10/19 13:32:31;;;;;;;7.97;5.53;;;;;;;;;;4975762;28;20145;-70
2022/10/19 13:35:33;;;;;;;10.93;5.63;;;;;;;;;;4971231;28;20093;-70
2022/10/19 13:38:17;;;;;;;8.70;5.15;;;;;;;;;;4979212;28;20117;-70
2022/10/19 13:40:48;;;;;;;6.90;4.72;;;;;;;;;;4980670;28;20045;-70
2022/10/19 13:43:38;;;;;;;8.98;5.07;;;;;;;;;;4979027;28;20035;-70
2022/10/19 13:46:17;;;;;;;12.20;5.93;;;;;;;;;;4974066;28;20038;-70
2022/10/19 13:48:48;;;;;;;13.15;5.70;;;;;;;;;;4978200;28;20532;-70
2022/10/19 13:51:44;;;;;;;6.82;4.75;;;;;;;;;;4973553;28;20053;-70
2022/10/19 13:54:31;;;;;;;9.50;5.07;;;;;;;;;;4979940;28;20053;-70
2022/10/19 13:57:05;;;;;;;9.30;4.85;;;;;;;;;;4980782;28;20038;-70
2022/10/19 13:59:56;;;;;;;7.35;4.75;;;;;;;;;;4981458;28;20045;-70
2022/10/19 14:02:40;;;;;;;10.07;5.10;;;;;;;;;;4972345;28;20627;-70
2022/10/19 14:05:08;;;;;;;10.00;5.15;;;;;;;;;;4974702;28;20794;-68
2022/10/19 14:08:07;;;;;;;9.98;5.88;;;;;;;;;;4976234;28;21228;-70
2022/10/19 14:10:33;;;;;;;7.30;4.70;;;;;;;;;;4981756;28;20607;-70
2022/10/19 14:12:59;;;;;;;7.30;4.70;;;;;;;;;;4975504;28;20513;-72
2022/10/19 14:15:26;;;;;;;10.95;5.50;;;;;;;;;;4977559;28;20053;-71
2022/10/19 14:17:52;;;;;;;7.78;5.00;;;;;;;;;;4976892;28;20117;-70
2022/10/19 14:20:35;;;;;;;12.38;5.15;;;;;;;;;;4980947;28;20168;-70
2022/10/19 14:23:16;;;;;;;;;;;;;;;;;;4965371;28;20039;-68
2022/10/19 14:25:50;;;;;;;8.98;4.90;;;;;;;;;;4976258;28;19929;-70
2022/10/19 14:28:16;;;;;;;6.80;4.38;;;;;;;;;;4980918;28;20034;-70
2022/10/19 14:30:42;;;;;;;7.20;4.68;;;;;;;;;;4983892;28;20038;-70
2022/10/19 14:33:09;;;;;;;11.00;4.88;;;;;;;;;;4980294;28;20306;-71
2022/10/19 14:35:38;;;;;;;11.05;5.05;;;;;;;;;;4986688;28;20061;-70
2022/10/19 14:38:05;;;;;;;7.53;4.13;;;;;;;;;;4983468;28;20077;-70
2022/10/19 14:40:36;;;;;;;7.47;4.70;;;;;;;;;;4986128;28;20619;-71
2022/10/19 14:43:02;;;;;;;8.00;4.47;;;;;;;;;;4981576;28;20081;-72
2022/10/19 14:45:30;;;;;;;5.15;4.30;;;;;;;;;;4979475;28;20058;-71
2022/10/19 14:48:04;;;;;;;8.05;4.28;;;;;;;;;;4932151;28;20043;-71
2022/10/19 14:50:48;;;;;;;10.57;4.18;;;;;;;;;;4971413;28;21849;-71
2022/10/19 14:53:35;;;;;;;9.48;3.92;;;;;;;;;;4976844;28;20443;-71
2022/10/19 14:56:07;;;;;;;7.97;3.90;;;;;;;;;;4974653;28;20523;-69